sensor_id;sensor_type;location;lat;lon;timestamp;P1;durP1;ratioP1;P2;durP2;ratioP2
24409;SDS011;12543;53.364;-1.504;2022-12-18T00:01:32;14.35;;;7.03;;
24409;SDS011;12543;53.364;-1.504;2022-12-18T00:04:02;13.18;;;7.68;;
24409;SDS011;12543;53.364;-1.504;2022-12-18T00:06:31;9.73;;;6.80;;
24409;SDS011;12543;53.364;-1.504;2022-12-18T00:09:00;13.27;;;6.82;;
24409;SDS011;12543;53.364;-1.504;2022-12-18T00:11:29;11.45;;;7.68;;
24409;SDS011;12543;53.364;-1.504;2022-12-18T00:13:58;12.48;;;8.30;;
24409;SDS011;12543;53.364;-1.504;2022-12-18T00:16:26;10.85;;;7.07;;
24409;SDS011;12543;53.364;-1.504;2022-12-18T00:18:57;11.10;;;6.55;;
24409;SDS011;12543;53.364;-1.504;2022-12-18T00:21:24;9.10;;;6.57;;
24409;SDS011;12543;53.364;-1.504;2022-12-18T00:23:51;10.27;;;6.70;;
24409;SDS011;12543;53.364;-1.504;2022-12-18T00:26:22;11.00;;;6.68;;
24409;SDS011;12543;53.364;-1.504;2022-12-18T00:28:57;8.40;;;6.10;;
24409;SDS011;12543;53.364;-1.504;2022-12-18T00:31:26;10.55;;;6.88;;
24409;SDS011;12543;53.364;-1.504;2022-12-18T00:33:54;10.05;;;6.80;;
24409;SDS011;12543;53.364;-1.504;2022-12-18T00:36:26;8.45;;;6.55;;
24409;SDS011;12543;53.364;-1.504;2022-12-18T00:38:56;9.43;;;6.40;;
24409;SDS011;12543;53.364;-1.504;2022-12-18T00:41:25;12.27;;;6.85;;
24409;SDS011;12543;53.364;-1.504;2022-12-18T00:44:13;9.10;;;6.85;;
24409;SDS011;12543;53.364;-1.504;2022-12-18T00:46:42;11.48;;;6.63;;
24409;SDS011;12543;53.364;-1.504;2022-12-18T00:49:12;9.75;;;6.60;;
24409;SDS011;12543;53.364;-1.504;2022-12-18T00:51:39;7.03;;;5.75;;
24409;SDS011;12543;53.364;-1.504;2022-12-18T00:54:07;12.45;;;6.55;;
24409;SDS011;12543;53.364;-1.504;2022-12-18T00:56:37;9.52;;;6.35;;
24409;SDS011;12543;53.364;-1.504;2022-12-18T00:59:15;10.40;;;6.30;;
24409;SDS011;12543;53.364;-1.504;2022-12-18T01:01:43;9.00;;;6.25;;
24409;SDS011;12543;53.364;-1.504;2022-12-18T01:04:11;8.95;;;6.20;;
24409;SDS011;12543;53.364;-1.504;2022-12-18T01:06:38;9.38;;;6.22;;
24409;SDS011;12543;53.364;-1.504;2022-12-18T01:09:06;7.13;;;5.72;;
24409;SDS011;12543;53.364;-1.504;2022-12-18T01:11:35;9.65;;;6.20;;
24409;SDS011;12543;53.364;-1.504;2022-12-18T01:14:03;12.90;;;7.77;;
24409;SDS011;12543;53.364;-1.504;2022-12-18T01:16:30;13.75;;;7.00;;
24409;SDS011;12543;53.364;-1.504;2022-12-18T01:18:58;14.23;;;6.82;;
24409;SDS011;12543;53.364;-1.504;2022-12-18T01:21:26;12.07;;;6.50;;
24409;SDS011;12543;53.364;-1.504;2022-12-18T01:23:54;13.55;;;7.40;;
24409;SDS011;12543;53.364;-1.504;2022-12-18T01:26:23;12.85;;;7.38;;
24409;SDS011;12543;53.364;-1.504;2022-12-18T01:28:51;10.48;;;6.50;;
24409;SDS011;12543;53.364;-1.504;2022-12-18T01:31:26;10.55;;;6.70;;
24409;SDS011;12543;53.364;-1.504;2022-12-18T01:33:55;13.32;;;7.60;;
24409;SDS011;12543;53.364;-1.504;2022-12-18T01:36:40;10.82;;;6.78;;
24409;SDS011;12543;53.364;-1.504;2022-12-18T01:39:09;15.52;;;7.20;;
24409;SDS011;12543;53.364;-1.504;2022-12-18T01:41:41;17.60;;;8.32;;
24409;SDS011;12543;53.364;-1.504;2022-12-18T01:52:51;16.17;;;9.03;;
24409;SDS011;12543;53.364;-1.504;2022-12-18T01:55:22;14.07;;;8.20;;
24409;SDS011;12543;53.364;-1.504;2022-12-18T01:57:52;18.17;;;9.15;;
24409;SDS011;12543;53.364;-1.504;2022-12-18T02:00:23;12.82;;;7.32;;
24409;SDS011;12543;53.364;-1.504;2022-12-18T02:02:51;11.48;;;6.80;;
24409;SDS011;12543;53.364;-1.504;2022-12-18T02:05:41;8.47;;;6.17;;
24409;SDS011;12543;53.364;-1.504;2022-12-18T02:08:18;9.32;;;6.13;;
24409;SDS011;12543;53.364;-1.504;2022-12-18T02:13:53;8.70;;;6.75;;
24409;SDS011;12543;53.364;-1.504;2022-12-18T02:16:39;8.45;;;6.43;;
24409;SDS011;12543;53.364;-1.504;2022-12-18T02:27:33;10.60;;;6.63;;
24409;SDS011;12543;53.364;-1.504;2022-12-18T02:30:04;8.50;;;6.45;;
24409;SDS011;12543;53.364;-1.504;2022-12-18T02:32:34;11.38;;;7.85;;
24409;SDS011;12543;53.364;-1.504;2022-12-18T02:35:08;10.20;;;6.82;;
24409;SDS011;12543;53.364;-1.504;2022-12-18T02:37:40;13.32;;;8.32;;
24409;SDS011;12543;53.364;-1.504;2022-12-18T02:40:09;13.23;;;8.18;;
24409;SDS011;12543;53.364;-1.504;2022-12-18T02:42:39;12.07;;;8.15;;
24409;SDS011;12543;53.364;-1.504;2022-12-18T02:45:08;11.07;;;8.25;;
24409;SDS011;12543;53.364;-1.504;2022-12-18T02:47:36;9.35;;;7.07;;
24409;SDS011;12543;53.364;-1.504;2022-12-18T02:50:18;9.73;;;7.50;;
24409;SDS011;12543;53.364;-1.504;2022-12-18T03:01:19;12.10;;;8.02;;
24409;SDS011;12543;53.364;-1.504;2022-12-18T03:06:23;10.43;;;8.27;;
24409;SDS011;12543;53.364;-1.504;2022-12-18T03:08:59;13.00;;;9.40;;
24409;SDS011;12543;53.364;-1.504;2022-12-18T03:11:31;11.65;;;8.80;;
24409;SDS011;12543;53.364;-1.504;2022-12-18T03:14:21;12.70;;;9.18;;
24409;SDS011;12543;53.364;-1.504;2022-12-18T03:16:52;12.15;;;9.15;;
24409;SDS011;12543;53.364;-1.504;2022-12-18T03:19:24;14.07;;;10.75;;
24409;SDS011;12543;53.364;-1.504;2022-12-18T03:21:57;10.68;;;8.52;;
24409;SDS011;12543;53.364;-1.504;2022-12-18T03:24:32;13.55;;;9.38;;
24409;SDS011;12543;53.364;-1.504;2022-12-18T03:27:02;10.55;;;8.73;;
24409;SDS011;12543;53.364;-1.504;2022-12-18T03:29:33;13.60;;;9.88;;
24409;SDS011;12543;53.364;-1.504;2022-12-18T03:32:18;16.45;;;10.52;;
24409;SDS011;12543;53.364;-1.504;2022-12-18T03:34:51;16.85;;;10.55;;
24409;SDS011;12543;53.364;-1.504;2022-12-18T03:37:24;15.23;;;10.52;;
24409;SDS011;12543;53.364;-1.504;2022-12-18T03:39:51;12.10;;;9.15;;
24409;SDS011;12543;53.364;-1.504;2022-12-18T03:45:18;13.48;;;10.55;;
24409;SDS011;12543;53.364;-1.504;2022-12-18T03:50:59;17.35;;;11.93;;
24409;SDS011;12543;53.364;-1.504;2022-12-18T03:56:22;17.10;;;10.93;;
24409;SDS011;12543;53.364;-1.504;2022-12-18T03:58:53;13.43;;;9.45;;
24409;SDS011;12543;53.364;-1.504;2022-12-18T04:01:28;13.00;;;10.02;;
24409;SDS011;12543;53.364;-1.504;2022-12-18T04:04:05;17.38;;;11.55;;
24409;SDS011;12543;53.364;-1.504;2022-12-18T04:06:37;15.75;;;10.95;;
24409;SDS011;12543;53.364;-1.504;2022-12-18T04:09:06;19.73;;;12.75;;
24409;SDS011;12543;53.364;-1.504;2022-12-18T04:11:37;16.48;;;11.50;;
24409;SDS011;12543;53.364;-1.504;2022-12-18T04:14:06;17.08;;;11.82;;
24409;SDS011;12543;53.364;-1.504;2022-12-18T04:16:35;17.25;;;10.65;;
24409;SDS011;12543;53.364;-1.504;2022-12-18T04:19:04;20.27;;;13.45;;
24409;SDS011;12543;53.364;-1.504;2022-12-18T04:21:37;16.33;;;11.73;;
24409;SDS011;12543;53.364;-1.504;2022-12-18T04:24:05;16.38;;;11.30;;
24409;SDS011;12543;53.364;-1.504;2022-12-18T04:26:34;15.00;;;10.38;;
24409;SDS011;12543;53.364;-1.504;2022-12-18T04:29:14;13.52;;;9.85;;
24409;SDS011;12543;53.364;-1.504;2022-12-18T04:31:42;12.60;;;8.80;;
24409;SDS011;12543;53.364;-1.504;2022-12-18T04:34:09;17.90;;;12.30;;
24409;SDS011;12543;53.364;-1.504;2022-12-18T04:36:42;18.67;;;13.00;;
24409;SDS011;12543;53.364;-1.504;2022-12-18T04:39:09;18.35;;;12.65;;
24409;SDS011;12543;53.364;-1.504;2022-12-18T04:41:37;18.85;;;12.73;;
24409;SDS011;12543;53.364;-1.504;2022-12-18T04:44:04;16.90;;;11.02;;
24409;SDS011;12543;53.364;-1.504;2022-12-18T04:46:34;16.90;;;11.48;;
24409;SDS011;12543;53.364;-1.504;2022-12-18T04:49:01;19.00;;;11.98;;
24409;SDS011;12543;53.364;-1.504;2022-12-18T04:51:28;17.95;;;11.88;;
24409;SDS011;12543;53.364;-1.504;2022-12-18T04:53:55;22.17;;;14.38;;
24409;SDS011;12543;53.364;-1.504;2022-12-18T04:56:22;23.85;;;15.43;;
24409;SDS011;12543;53.364;-1.504;2022-12-18T04:58:49;26.00;;;16.95;;
24409;SDS011;12543;53.364;-1.504;2022-12-18T05:01:18;26.20;;;17.02;;
24409;SDS011;12543;53.364;-1.504;2022-12-18T05:03:48;29.15;;;17.63;;
24409;SDS011;12543;53.364;-1.504;2022-12-18T05:08:44;27.13;;;17.33;;
24409;SDS011;12543;53.364;-1.504;2022-12-18T05:11:12;31.07;;;18.57;;
24409;SDS011;12543;53.364;-1.504;2022-12-18T05:13:44;27.33;;;17.30;;
24409;SDS011;12543;53.364;-1.504;2022-12-18T05:16:12;28.67;;;18.92;;
24409;SDS011;12543;53.364;-1.504;2022-12-18T05:18:41;27.48;;;17.65;;
24409;SDS011;12543;53.364;-1.504;2022-12-18T05:21:08;30.98;;;20.17;;
24409;SDS011;12543;53.364;-1.504;2022-12-18T05:23:35;30.35;;;19.13;;
24409;SDS011;12543;53.364;-1.504;2022-12-18T05:26:04;33.33;;;19.20;;
24409;SDS011;12543;53.364;-1.504;2022-12-18T05:28:32;29.98;;;19.33;;
24409;SDS011;12543;53.364;-1.504;2022-12-18T05:33:30;32.38;;;18.90;;
24409;SDS011;12543;53.364;-1.504;2022-12-18T05:35:59;33.75;;;20.38;;
24409;SDS011;12543;53.364;-1.504;2022-12-18T05:38:29;31.15;;;19.73;;
24409;SDS011;12543;53.364;-1.504;2022-12-18T05:40:57;36.50;;;22.95;;
24409;SDS011;12543;53.364;-1.504;2022-12-18T05:43:25;37.13;;;22.27;;
24409;SDS011;12543;53.364;-1.504;2022-12-18T05:48:21;44.90;;;26.13;;
24409;SDS011;12543;53.364;-1.504;2022-12-18T05:50:48;41.50;;;24.80;;
24409;SDS011;12543;53.364;-1.504;2022-12-18T05:53:17;43.67;;;26.35;;
24409;SDS011;12543;53.364;-1.504;2022-12-18T05:55:46;46.97;;;27.63;;
24409;SDS011;12543;53.364;-1.504;2022-12-18T05:58:13;48.53;;;28.00;;
24409;SDS011;12543;53.364;-1.504;2022-12-18T06:00:42;50.22;;;28.17;;
24409;SDS011;12543;53.364;-1.504;2022-12-18T06:03:14;47.90;;;26.83;;
24409;SDS011;12543;53.364;-1.504;2022-12-18T06:05:46;47.45;;;27.88;;
24409;SDS011;12543;53.364;-1.504;2022-12-18T06:08:13;47.75;;;26.65;;
24409;SDS011;12543;53.364;-1.504;2022-12-18T06:10:40;50.45;;;28.40;;
24409;SDS011;12543;53.364;-1.504;2022-12-18T06:13:07;58.40;;;31.27;;
24409;SDS011;12543;53.364;-1.504;2022-12-18T06:15:37;57.60;;;30.45;;
24409;SDS011;12543;53.364;-1.504;2022-12-18T06:18:04;58.03;;;32.50;;
24409;SDS011;12543;53.364;-1.504;2022-12-18T06:20:31;61.25;;;32.47;;
24409;SDS011;12543;53.364;-1.504;2022-12-18T06:22:59;56.53;;;31.17;;
24409;SDS011;12543;53.364;-1.504;2022-12-18T06:25:27;53.25;;;30.58;;
24409;SDS011;12543;53.364;-1.504;2022-12-18T06:27:54;50.05;;;29.98;;
24409;SDS011;12543;53.364;-1.504;2022-12-18T06:30:21;64.65;;;34.42;;
24409;SDS011;12543;53.364;-1.504;2022-12-18T06:32:49;63.63;;;34.20;;
24409;SDS011;12543;53.364;-1.504;2022-12-18T06:35:22;62.67;;;35.20;;
24409;SDS011;12543;53.364;-1.504;2022-12-18T06:37:49;64.78;;;35.75;;
24409;SDS011;12543;53.364;-1.504;2022-12-18T06:40:17;60.63;;;35.28;;
24409;SDS011;12543;53.364;-1.504;2022-12-18T06:42:44;66.80;;;34.97;;
24409;SDS011;12543;53.364;-1.504;2022-12-18T06:45:12;66.18;;;35.38;;
24409;SDS011;12543;53.364;-1.504;2022-12-18T06:47:39;60.08;;;33.05;;
24409;SDS011;12543;53.364;-1.504;2022-12-18T06:50:06;58.13;;;32.50;;
24409;SDS011;12543;53.364;-1.504;2022-12-18T06:52:34;58.00;;;32.42;;
24409;SDS011;12543;53.364;-1.504;2022-12-18T06:55:01;55.20;;;31.38;;
24409;SDS011;12543;53.364;-1.504;2022-12-18T06:57:28;59.80;;;32.03;;
24409;SDS011;12543;53.364;-1.504;2022-12-18T06:59:55;73.60;;;36.42;;
24409;SDS011;12543;53.364;-1.504;2022-12-18T07:02:22;63.65;;;34.22;;
24409;SDS011;12543;53.364;-1.504;2022-12-18T07:04:49;56.58;;;33.53;;
24409;SDS011;12543;53.364;-1.504;2022-12-18T07:07:16;64.40;;;35.72;;
24409;SDS011;12543;53.364;-1.504;2022-12-18T07:09:43;54.00;;;31.45;;
24409;SDS011;12543;53.364;-1.504;2022-12-18T07:12:10;61.53;;;33.50;;
24409;SDS011;12543;53.364;-1.504;2022-12-18T07:14:37;62.00;;;34.25;;
24409;SDS011;12543;53.364;-1.504;2022-12-18T07:17:04;56.80;;;34.10;;
24409;SDS011;12543;53.364;-1.504;2022-12-18T07:19:32;57.65;;;33.75;;
24409;SDS011;12543;53.364;-1.504;2022-12-18T07:22:00;58.93;;;33.47;;
24409;SDS011;12543;53.364;-1.504;2022-12-18T07:24:27;55.10;;;32.17;;
24409;SDS011;12543;53.364;-1.504;2022-12-18T07:26:54;59.38;;;33.17;;
24409;SDS011;12543;53.364;-1.504;2022-12-18T07:29:21;58.50;;;34.67;;
24409;SDS011;12543;53.364;-1.504;2022-12-18T07:31:48;58.17;;;33.55;;
24409;SDS011;12543;53.364;-1.504;2022-12-18T07:34:15;82.95;;;41.00;;
24409;SDS011;12543;53.364;-1.504;2022-12-18T07:36:43;72.30;;;39.08;;
24409;SDS011;12543;53.364;-1.504;2022-12-18T07:39:10;78.57;;;39.35;;
24409;SDS011;12543;53.364;-1.504;2022-12-18T07:41:38;71.03;;;37.88;;
24409;SDS011;12543;53.364;-1.504;2022-12-18T07:44:14;65.72;;;37.20;;
24409;SDS011;12543;53.364;-1.504;2022-12-18T07:46:41;66.57;;;36.22;;
24409;SDS011;12543;53.364;-1.504;2022-12-18T07:49:08;65.80;;;37.55;;
24409;SDS011;12543;53.364;-1.504;2022-12-18T07:51:36;65.05;;;34.83;;
24409;SDS011;12543;53.364;-1.504;2022-12-18T07:54:03;62.35;;;35.65;;
24409;SDS011;12543;53.364;-1.504;2022-12-18T07:56:30;75.32;;;41.35;;
24409;SDS011;12543;53.364;-1.504;2022-12-18T07:58:58;76.80;;;39.70;;
24409;SDS011;12543;53.364;-1.504;2022-12-18T08:01:26;75.32;;;39.38;;
24409;SDS011;12543;53.364;-1.504;2022-12-18T08:03:53;76.00;;;41.13;;
24409;SDS011;12543;53.364;-1.504;2022-12-18T08:06:20;68.68;;;38.03;;
24409;SDS011;12543;53.364;-1.504;2022-12-18T08:08:53;75.47;;;40.80;;
24409;SDS011;12543;53.364;-1.504;2022-12-18T08:11:22;70.60;;;37.45;;
24409;SDS011;12543;53.364;-1.504;2022-12-18T08:13:50;67.05;;;37.63;;
24409;SDS011;12543;53.364;-1.504;2022-12-18T08:16:18;70.53;;;37.03;;
24409;SDS011;12543;53.364;-1.504;2022-12-18T08:18:46;71.70;;;37.42;;
24409;SDS011;12543;53.364;-1.504;2022-12-18T08:21:20;80.45;;;39.15;;
24409;SDS011;12543;53.364;-1.504;2022-12-18T08:23:50;79.30;;;38.30;;
24409;SDS011;12543;53.364;-1.504;2022-12-18T08:26:18;81.50;;;42.35;;
24409;SDS011;12543;53.364;-1.504;2022-12-18T08:28:46;65.95;;;35.95;;
24409;SDS011;12543;53.364;-1.504;2022-12-18T08:31:14;69.15;;;36.33;;
24409;SDS011;12543;53.364;-1.504;2022-12-18T08:33:41;69.40;;;36.60;;
24409;SDS011;12543;53.364;-1.504;2022-12-18T08:36:09;73.70;;;38.88;;
24409;SDS011;12543;53.364;-1.504;2022-12-18T08:38:36;75.47;;;38.53;;
24409;SDS011;12543;53.364;-1.504;2022-12-18T08:41:08;68.25;;;36.40;;
24409;SDS011;12543;53.364;-1.504;2022-12-18T08:43:37;75.60;;;36.72;;
24409;SDS011;12543;53.364;-1.504;2022-12-18T08:46:23;69.50;;;35.15;;
24409;SDS011;12543;53.364;-1.504;2022-12-18T08:48:52;77.65;;;37.05;;
24409;SDS011;12543;53.364;-1.504;2022-12-18T08:51:21;67.45;;;35.65;;
24409;SDS011;12543;53.364;-1.504;2022-12-18T08:53:48;66.75;;;34.63;;
24409;SDS011;12543;53.364;-1.504;2022-12-18T08:56:15;68.93;;;34.70;;
24409;SDS011;12543;53.364;-1.504;2022-12-18T08:58:42;63.40;;;33.63;;
24409;SDS011;12543;53.364;-1.504;2022-12-18T09:01:10;64.13;;;32.95;;
24409;SDS011;12543;53.364;-1.504;2022-12-18T09:03:39;62.58;;;31.83;;
24409;SDS011;12543;53.364;-1.504;2022-12-18T09:06:07;66.32;;;32.30;;
24409;SDS011;12543;53.364;-1.504;2022-12-18T09:08:34;59.80;;;30.63;;
24409;SDS011;12543;53.364;-1.504;2022-12-18T09:11:03;70.03;;;34.13;;
24409;SDS011;12543;53.364;-1.504;2022-12-18T09:13:30;71.05;;;33.78;;
24409;SDS011;12543;53.364;-1.504;2022-12-18T09:15:57;78.28;;;35.50;;
24409;SDS011;12543;53.364;-1.504;2022-12-18T09:18:24;72.85;;;35.08;;
24409;SDS011;12543;53.364;-1.504;2022-12-18T09:20:51;75.93;;;32.90;;
24409;SDS011;12543;53.364;-1.504;2022-12-18T09:23:19;58.60;;;32.22;;
24409;SDS011;12543;53.364;-1.504;2022-12-18T09:25:47;71.68;;;34.13;;
24409;SDS011;12543;53.364;-1.504;2022-12-18T09:28:16;68.85;;;33.78;;
24409;SDS011;12543;53.364;-1.504;2022-12-18T09:30:45;66.75;;;31.70;;
24409;SDS011;12543;53.364;-1.504;2022-12-18T09:33:16;59.53;;;30.60;;
24409;SDS011;12543;53.364;-1.504;2022-12-18T09:35:45;75.32;;;35.22;;
24409;SDS011;12543;53.364;-1.504;2022-12-18T09:38:13;66.00;;;32.45;;
24409;SDS011;12543;53.364;-1.504;2022-12-18T09:40:43;58.60;;;29.58;;
24409;SDS011;12543;53.364;-1.504;2022-12-18T09:43:17;63.75;;;32.33;;
24409;SDS011;12543;53.364;-1.504;2022-12-18T09:46:01;70.65;;;32.20;;
24409;SDS011;12543;53.364;-1.504;2022-12-18T09:48:32;67.55;;;32.08;;
24409;SDS011;12543;53.364;-1.504;2022-12-18T09:51:05;56.47;;;30.48;;
24409;SDS011;12543;53.364;-1.504;2022-12-18T09:53:47;60.75;;;31.48;;
24409;SDS011;12543;53.364;-1.504;2022-12-18T09:56:19;85.10;;;36.78;;
24409;SDS011;12543;53.364;-1.504;2022-12-18T09:58:53;61.42;;;31.48;;
24409;SDS011;12543;53.364;-1.504;2022-12-18T10:01:24;62.45;;;32.45;;
24409;SDS011;12543;53.364;-1.504;2022-12-18T10:04:04;71.60;;;34.05;;
24409;SDS011;12543;53.364;-1.504;2022-12-18T10:06:36;59.03;;;30.67;;
24409;SDS011;12543;53.364;-1.504;2022-12-18T10:09:24;63.65;;;31.75;;
24409;SDS011;12543;53.364;-1.504;2022-12-18T10:12:02;60.65;;;31.77;;
24409;SDS011;12543;53.364;-1.504;2022-12-18T10:14:41;54.05;;;28.73;;
24409;SDS011;12543;53.364;-1.504;2022-12-18T10:27:56;59.30;;;30.27;;
24409;SDS011;12543;53.364;-1.504;2022-12-18T10:30:33;58.97;;;28.20;;
24409;SDS011;12543;53.364;-1.504;2022-12-18T10:33:01;59.13;;;29.35;;
24409;SDS011;12543;53.364;-1.504;2022-12-18T10:35:29;69.10;;;32.22;;
24409;SDS011;12543;53.364;-1.504;2022-12-18T10:38:03;58.45;;;30.05;;
24409;SDS011;12543;53.364;-1.504;2022-12-18T10:40:47;59.75;;;29.60;;
24409;SDS011;12543;53.364;-1.504;2022-12-18T10:43:15;56.88;;;28.40;;
24409;SDS011;12543;53.364;-1.504;2022-12-18T10:48:36;53.25;;;26.63;;
24409;SDS011;12543;53.364;-1.504;2022-12-18T10:54:01;46.65;;;25.10;;
24409;SDS011;12543;53.364;-1.504;2022-12-18T10:56:35;47.92;;;24.80;;
24409;SDS011;12543;53.364;-1.504;2022-12-18T10:59:05;59.30;;;29.17;;
24409;SDS011;12543;53.364;-1.504;2022-12-18T11:01:47;61.38;;;29.00;;
24409;SDS011;12543;53.364;-1.504;2022-12-18T11:04:26;55.63;;;28.55;;
24409;SDS011;12543;53.364;-1.504;2022-12-18T11:09:31;57.35;;;27.08;;
24409;SDS011;12543;53.364;-1.504;2022-12-18T11:12:03;55.20;;;26.92;;
24409;SDS011;12543;53.364;-1.504;2022-12-18T11:17:27;48.70;;;24.90;;
24409;SDS011;12543;53.364;-1.504;2022-12-18T11:19:58;45.72;;;24.35;;
24409;SDS011;12543;53.364;-1.504;2022-12-18T11:22:28;54.17;;;26.52;;
24409;SDS011;12543;53.364;-1.504;2022-12-18T11:28:01;52.22;;;27.70;;
24409;SDS011;12543;53.364;-1.504;2022-12-18T11:30:34;49.30;;;26.42;;
24409;SDS011;12543;53.364;-1.504;2022-12-18T11:35:44;50.30;;;25.05;;
24409;SDS011;12543;53.364;-1.504;2022-12-18T11:38:23;53.13;;;27.65;;
24409;SDS011;12543;53.364;-1.504;2022-12-18T11:40:55;47.88;;;25.77;;
24409;SDS011;12543;53.364;-1.504;2022-12-18T11:46:36;48.97;;;26.23;;
24409;SDS011;12543;53.364;-1.504;2022-12-18T11:49:07;52.75;;;27.75;;
24409;SDS011;12543;53.364;-1.504;2022-12-18T11:51:55;48.00;;;25.95;;
24409;SDS011;12543;53.364;-1.504;2022-12-18T11:54:27;50.60;;;27.10;;
24409;SDS011;12543;53.364;-1.504;2022-12-18T12:02:29;46.35;;;25.10;;
24409;SDS011;12543;53.364;-1.504;2022-12-18T12:05:33;49.13;;;25.38;;
24409;SDS011;12543;53.364;-1.504;2022-12-18T12:13:47;56.15;;;28.60;;
24409;SDS011;12543;53.364;-1.504;2022-12-18T12:28:47;51.72;;;27.73;;
24409;SDS011;12543;53.364;-1.504;2022-12-18T12:31:13;50.83;;;27.20;;
24409;SDS011;12543;53.364;-1.504;2022-12-18T12:36:24;42.78;;;24.55;;
24409;SDS011;12543;53.364;-1.504;2022-12-18T12:39:11;46.67;;;25.50;;
24409;SDS011;12543;53.364;-1.504;2022-12-18T12:41:44;46.92;;;25.73;;
24409;SDS011;12543;53.364;-1.504;2022-12-18T12:44:43;46.67;;;25.60;;
24409;SDS011;12543;53.364;-1.504;2022-12-18T12:47:37;50.65;;;27.52;;
24409;SDS011;12543;53.364;-1.504;2022-12-18T12:50:11;43.17;;;24.88;;
24409;SDS011;12543;53.364;-1.504;2022-12-18T12:52:42;54.92;;;27.75;;
24409;SDS011;12543;53.364;-1.504;2022-12-18T12:55:17;43.85;;;24.50;;
24409;SDS011;12543;53.364;-1.504;2022-12-18T13:01:08;51.50;;;27.77;;
24409;SDS011;12543;53.364;-1.504;2022-12-18T13:07:29;52.00;;;28.42;;
24409;SDS011;12543;53.364;-1.504;2022-12-18T13:10:10;57.15;;;30.25;;
24409;SDS011;12543;53.364;-1.504;2022-12-18T13:16:05;46.63;;;26.63;;
24409;SDS011;12543;53.364;-1.504;2022-12-18T13:18:34;47.60;;;26.75;;
24409;SDS011;12543;53.364;-1.504;2022-12-18T13:21:04;49.08;;;27.85;;
24409;SDS011;12543;53.364;-1.504;2022-12-18T13:23:47;47.17;;;26.17;;
24409;SDS011;12543;53.364;-1.504;2022-12-18T13:28:53;50.00;;;26.42;;
24409;SDS011;12543;53.364;-1.504;2022-12-18T13:34:18;44.53;;;25.17;;
24409;SDS011;12543;53.364;-1.504;2022-12-18T13:36:54;48.25;;;27.90;;
24409;SDS011;12543;53.364;-1.504;2022-12-18T13:39:23;53.42;;;29.85;;
24409;SDS011;12543;53.364;-1.504;2022-12-18T13:44:38;45.67;;;25.73;;
24409;SDS011;12543;53.364;-1.504;2022-12-18T13:47:40;52.03;;;26.92;;
24409;SDS011;12543;53.364;-1.504;2022-12-18T13:50:18;46.03;;;24.23;;
24409;SDS011;12543;53.364;-1.504;2022-12-18T13:52:49;51.15;;;28.10;;
24409;SDS011;12543;53.364;-1.504;2022-12-18T13:55:19;53.88;;;28.65;;
24409;SDS011;12543;53.364;-1.504;2022-12-18T13:57:48;59.72;;;28.73;;
24409;SDS011;12543;53.364;-1.504;2022-12-18T14:02:52;51.88;;;29.08;;
24409;SDS011;12543;53.364;-1.504;2022-12-18T14:05:22;57.47;;;29.02;;
24409;SDS011;12543;53.364;-1.504;2022-12-18T14:07:54;46.80;;;27.15;;
24409;SDS011;12543;53.364;-1.504;2022-12-18T14:10:27;46.90;;;26.63;;
24409;SDS011;12543;53.364;-1.504;2022-12-18T14:13:23;52.63;;;27.08;;
24409;SDS011;12543;53.364;-1.504;2022-12-18T14:15:54;57.63;;;30.75;;
24409;SDS011;12543;53.364;-1.504;2022-12-18T14:21:37;53.65;;;28.50;;
24409;SDS011;12543;53.364;-1.504;2022-12-18T14:26:35;59.83;;;28.65;;
24409;SDS011;12543;53.364;-1.504;2022-12-18T14:34:44;48.28;;;26.52;;
24409;SDS011;12543;53.364;-1.504;2022-12-18T14:37:16;54.88;;;28.50;;
24409;SDS011;12543;53.364;-1.504;2022-12-18T14:39:54;56.00;;;28.70;;
24409;SDS011;12543;53.364;-1.504;2022-12-18T14:42:21;52.47;;;28.92;;
24409;SDS011;12543;53.364;-1.504;2022-12-18T14:44:48;50.67;;;27.88;;
24409;SDS011;12543;53.364;-1.504;2022-12-18T14:47:35;53.70;;;27.38;;
24409;SDS011;12543;53.364;-1.504;2022-12-18T14:50:02;45.05;;;25.38;;
24409;SDS011;12543;53.364;-1.504;2022-12-18T14:52:29;43.28;;;26.02;;
24409;SDS011;12543;53.364;-1.504;2022-12-18T14:54:58;53.85;;;28.85;;
24409;SDS011;12543;53.364;-1.504;2022-12-18T14:57:25;50.97;;;27.63;;
24409;SDS011;12543;53.364;-1.504;2022-12-18T15:00:06;54.45;;;28.52;;
24409;SDS011;12543;53.364;-1.504;2022-12-18T15:02:40;42.30;;;25.38;;
24409;SDS011;12543;53.364;-1.504;2022-12-18T15:07:44;46.20;;;25.38;;
24409;SDS011;12543;53.364;-1.504;2022-12-18T15:12:45;58.30;;;28.67;;
24409;SDS011;12543;53.364;-1.504;2022-12-18T15:20:27;49.50;;;26.00;;
24409;SDS011;12543;53.364;-1.504;2022-12-18T15:22:57;50.75;;;26.85;;
24409;SDS011;12543;53.364;-1.504;2022-12-18T15:25:32;43.00;;;24.35;;
24409;SDS011;12543;53.364;-1.504;2022-12-18T15:28:03;42.60;;;23.98;;
24409;SDS011;12543;53.364;-1.504;2022-12-18T15:30:57;41.97;;;23.23;;
24409;SDS011;12543;53.364;-1.504;2022-12-18T15:33:26;49.60;;;24.15;;
24409;SDS011;12543;53.364;-1.504;2022-12-18T15:35:58;55.92;;;22.60;;
24409;SDS011;12543;53.364;-1.504;2022-12-18T15:38:27;35.55;;;20.90;;
24409;SDS011;12543;53.364;-1.504;2022-12-18T15:40:54;43.22;;;26.77;;
24409;SDS011;12543;53.364;-1.504;2022-12-18T15:43:21;44.13;;;25.42;;
24409;SDS011;12543;53.364;-1.504;2022-12-18T15:46:06;38.60;;;24.05;;
24409;SDS011;12543;53.364;-1.504;2022-12-18T15:48:39;43.35;;;26.70;;
24409;SDS011;12543;53.364;-1.504;2022-12-18T15:51:14;39.17;;;24.15;;
24409;SDS011;12543;53.364;-1.504;2022-12-18T15:53:48;38.95;;;23.85;;
24409;SDS011;12543;53.364;-1.504;2022-12-18T15:56:17;53.08;;;25.65;;
24409;SDS011;12543;53.364;-1.504;2022-12-18T15:59:11;39.80;;;24.42;;
24409;SDS011;12543;53.364;-1.504;2022-12-18T16:01:39;36.97;;;24.15;;
24409;SDS011;12543;53.364;-1.504;2022-12-18T16:04:10;36.17;;;22.45;;
24409;SDS011;12543;53.364;-1.504;2022-12-18T16:06:40;52.22;;;26.17;;
24409;SDS011;12543;53.364;-1.504;2022-12-18T16:09:27;45.08;;;23.40;;
24409;SDS011;12543;53.364;-1.504;2022-12-18T16:11:54;41.15;;;24.15;;
24409;SDS011;12543;53.364;-1.504;2022-12-18T16:14:22;39.92;;;22.63;;
24409;SDS011;12543;53.364;-1.504;2022-12-18T16:16:58;32.33;;;20.85;;
24409;SDS011;12543;53.364;-1.504;2022-12-18T16:19:27;39.25;;;24.30;;
24409;SDS011;12543;53.364;-1.504;2022-12-18T16:21:55;36.67;;;23.55;;
24409;SDS011;12543;53.364;-1.504;2022-12-18T16:24:25;32.80;;;21.60;;
24409;SDS011;12543;53.364;-1.504;2022-12-18T16:26:53;35.38;;;22.25;;
24409;SDS011;12543;53.364;-1.504;2022-12-18T16:29:22;61.03;;;24.75;;
24409;SDS011;12543;53.364;-1.504;2022-12-18T16:31:56;39.47;;;22.25;;
24409;SDS011;12543;53.364;-1.504;2022-12-18T16:34:28;31.73;;;21.83;;
24409;SDS011;12543;53.364;-1.504;2022-12-18T16:37:02;32.83;;;21.73;;
24409;SDS011;12543;53.364;-1.504;2022-12-18T16:39:35;36.58;;;21.63;;
24409;SDS011;12543;53.364;-1.504;2022-12-18T16:42:09;31.30;;;20.25;;
24409;SDS011;12543;53.364;-1.504;2022-12-18T16:44:43;31.15;;;20.67;;
24409;SDS011;12543;53.364;-1.504;2022-12-18T16:47:10;27.25;;;18.63;;
24409;SDS011;12543;53.364;-1.504;2022-12-18T16:49:40;27.90;;;18.67;;
24409;SDS011;12543;53.364;-1.504;2022-12-18T16:52:08;29.80;;;18.75;;
24409;SDS011;12543;53.364;-1.504;2022-12-18T16:54:35;30.13;;;20.48;;
24409;SDS011;12543;53.364;-1.504;2022-12-18T16:57:03;29.20;;;20.60;;
24409;SDS011;12543;53.364;-1.504;2022-12-18T16:59:33;33.28;;;20.48;;
24409;SDS011;12543;53.364;-1.504;2022-12-18T17:02:02;28.45;;;19.60;;
24409;SDS011;12543;53.364;-1.504;2022-12-18T17:04:29;28.57;;;19.83;;